Afton, Tennessee
Current Conditions -  °F | °C
As of 4:53 PM on Sunday 25 Jan 2015 (Local Time) from KTRI Reporting Station
Broken Clouds Broken Clouds  
Wind Chill: 50°   Ceiling: 25000
Heat Index: 50°   Visibility: 10mi
Dew Point: 32°   Wind: 6mph
Humidity: 50%   Direction: 340°NNW
Pressure: 29.71"   Gusts: NA
Location:  36.19°N, 82.74°W
Report Text: KTRI 252153Z 34005KT 10SM SCT160 BKN250 10/00 A2971 RMK AO2 SLP056 T01000000
Loading
Personal Weather Stations






























Interactive Weather Map New forecast layout! Learn more

10-Day Weather Forecast

Advertisements
Track Severe Weather on mobile